createdAt,value
2023-03-30T00:01:40.891Z,97.10
2023-03-30T00:04:08.717Z,97.20
2023-03-30T00:06:36.039Z,97.50
2023-03-30T00:09:03.581Z,97.60
2023-03-30T00:11:31.247Z,97.80
2023-03-30T00:13:58.806Z,98.00
2023-03-30T00:16:26.386Z,98.10
2023-03-30T00:18:53.949Z,98.20
2023-03-30T00:21:21.479Z,98.40
2023-03-30T00:23:49.028Z,98.50
2023-03-30T00:26:16.622Z,98.70
2023-03-30T00:28:44.138Z,99.00
2023-03-30T00:31:11.681Z,99.30
2023-03-30T00:33:46.638Z,99.60
2023-03-30T00:36:06.915Z,99.90
2023-03-30T00:38:34.386Z,99.90
2023-03-30T00:41:02.427Z,99.90
2023-03-30T00:43:29.528Z,99.90
2023-03-30T00:48:30.317Z,99.90
2023-03-30T00:50:57.862Z,99.90
2023-03-30T00:53:27.899Z,99.90
2023-03-30T00:55:55.492Z,99.90
2023-03-30T00:58:23.065Z,99.90
2023-03-30T01:00:50.620Z,99.90
2023-03-30T01:03:18.265Z,99.90
2023-03-30T01:05:45.720Z,99.90
2023-03-30T01:08:13.255Z,99.90
2023-03-30T01:10:41.579Z,99.90
2023-03-30T01:13:11.825Z,99.90
2023-03-30T01:15:39.300Z,99.90
2023-03-30T01:18:06.920Z,99.90
2023-03-30T01:20:42.765Z,99.90
2023-03-30T01:23:12.740Z,99.90
2023-03-30T01:26:04.113Z,99.90
2023-03-30T01:28:55.280Z,99.90
2023-03-30T01:31:55.580Z,99.90
2023-03-30T01:34:28.818Z,99.90
2023-03-30T01:37:14.234Z,99.90
2023-03-30T01:39:56.969Z,99.90
2023-03-30T01:42:33.189Z,99.90
2023-03-30T01:45:15.602Z,99.90
2023-03-30T01:47:45.612Z,99.90
2023-03-30T01:50:27.547Z,99.90
2023-03-30T01:52:57.775Z,99.90
2023-03-30T01:55:25.306Z,99.90
2023-03-30T01:57:52.867Z,99.90
2023-03-30T02:00:20.433Z,99.90
2023-03-30T02:02:53.636Z,99.90
2023-03-30T02:05:21.155Z,99.90
2023-03-30T02:07:48.708Z,99.90
2023-03-30T02:10:16.243Z,99.90
2023-03-30T02:12:43.798Z,99.90
2023-03-30T02:15:11.425Z,99.90
2023-03-30T02:17:38.989Z,99.90
2023-03-30T02:20:06.528Z,99.90
2023-03-30T02:22:34.064Z,99.90
2023-03-30T02:25:01.610Z,99.90
2023-03-30T02:27:29.167Z,99.90
2023-03-30T02:29:56.721Z,99.90
2023-03-30T02:32:29.961Z,99.90
2023-03-30T02:35:06.236Z,99.90
2023-03-30T02:37:51.636Z,99.90
2023-03-30T02:40:21.871Z,99.90
2023-03-30T02:42:52.306Z,99.90
2023-03-30T02:45:37.980Z,99.90
2023-03-30T02:48:17.103Z,99.90
2023-03-30T02:50:47.153Z,99.90
2023-03-30T02:53:20.346Z,99.90
2023-03-30T02:55:53.361Z,99.90
2023-03-30T02:58:20.913Z,99.90
2023-03-30T03:00:51.403Z,99.90
2023-03-30T03:03:24.674Z,99.90
2023-03-30T03:05:52.117Z,99.90
2023-03-30T03:08:19.670Z,99.90
2023-03-30T03:10:47.212Z,99.90
2023-03-30T03:13:14.748Z,99.90
2023-03-30T03:15:42.294Z,99.90
2023-03-30T03:18:09.815Z,99.90
2023-03-30T03:20:37.374Z,99.90
2023-03-30T03:23:04.966Z,99.90
2023-03-30T03:25:32.517Z,99.90
2023-03-30T03:28:00.121Z,99.90
2023-03-30T03:30:27.670Z,99.90
2023-03-30T03:32:55.223Z,99.90
2023-03-30T03:35:22.816Z,99.90
2023-03-30T03:37:50.358Z,99.90
2023-03-30T03:40:17.904Z,99.90
2023-03-30T03:42:45.497Z,99.90
2023-03-30T03:45:13.052Z,99.90
2023-03-30T03:47:40.608Z,99.90
2023-03-30T03:50:08.181Z,99.90
2023-03-30T03:52:38.190Z,99.90
2023-03-30T03:55:05.740Z,99.90
2023-03-30T03:57:33.387Z,99.90
2023-03-30T04:00:00.901Z,99.90
2023-03-30T04:02:28.569Z,99.90
2023-03-30T04:04:56.149Z,99.90
2023-03-30T04:07:23.641Z,99.90
2023-03-30T04:09:51.167Z,99.90
2023-03-30T04:12:18.759Z,99.90
2023-03-30T04:14:46.288Z,99.90
2023-03-30T04:17:13.830Z,99.90
2023-03-30T04:19:41.422Z,99.90
2023-03-30T04:22:08.971Z,99.90
2023-03-30T04:24:36.482Z,99.90
2023-03-30T04:27:04.117Z,99.90
2023-03-30T04:29:31.670Z,99.90
2023-03-30T04:31:59.293Z,99.90
2023-03-30T04:34:26.826Z,99.90
2023-03-30T04:36:54.349Z,99.90
2023-03-30T04:39:21.893Z,99.90
2023-03-30T04:41:49.528Z,99.90
2023-03-30T04:44:17.052Z,99.90
2023-03-30T04:46:44.589Z,99.90
2023-03-30T04:49:12.671Z,99.90
2023-03-30T04:51:40.208Z,99.90
2023-03-30T04:54:07.745Z,99.90
2023-03-30T04:56:35.319Z,99.90
2023-03-30T04:59:02.865Z,99.90
2023-03-30T05:01:30.430Z,99.90
2023-03-30T05:03:57.966Z,99.90
2023-03-30T05:06:25.506Z,99.90
2023-03-30T05:08:53.049Z,99.90
2023-03-30T05:11:20.688Z,99.90
2023-03-30T05:13:48.220Z,99.90
2023-03-30T05:16:15.789Z,99.90
2023-03-30T05:18:43.355Z,99.90
2023-03-30T05:21:10.887Z,99.90
2023-03-30T05:23:38.433Z,99.90
2023-03-30T05:26:06.117Z,99.90
2023-03-30T05:28:33.611Z,99.90
2023-03-30T05:31:01.240Z,99.90
2023-03-30T05:33:28.744Z,99.90
2023-03-30T05:35:56.288Z,99.90
2023-03-30T05:38:23.817Z,99.90
2023-03-30T05:40:54.306Z,99.90
2023-03-30T05:43:21.853Z,99.90
2023-03-30T05:45:49.358Z,99.90
2023-03-30T05:48:16.949Z,99.90
2023-03-30T05:50:44.507Z,99.90
2023-03-30T05:53:12.041Z,99.90
2023-03-30T05:55:39.575Z,99.90
2023-03-30T05:58:07.142Z,99.90
2023-03-30T06:00:34.676Z,99.90
2023-03-30T06:03:02.368Z,99.90
2023-03-30T06:05:29.819Z,99.90
2023-03-30T06:07:57.321Z,99.90
2023-03-30T06:10:24.886Z,99.90
2023-03-30T06:12:52.408Z,99.90
2023-03-30T06:15:19.941Z,99.90
2023-03-30T06:17:47.531Z,99.90
2023-03-30T06:20:15.052Z,99.90
2023-03-30T06:22:42.596Z,99.90
2023-03-30T06:25:10.172Z,99.90
2023-03-30T06:27:37.727Z,99.90
2023-03-30T06:30:05.250Z,99.90
2023-03-30T06:32:32.872Z,99.90
2023-03-30T06:35:00.360Z,99.90
2023-03-30T06:37:27.898Z,99.90
2023-03-30T06:39:55.440Z,99.90
2023-03-30T06:42:23.004Z,99.90
2023-03-30T06:44:50.554Z,99.90
2023-03-30T06:47:18.081Z,99.90
2023-03-30T06:49:45.681Z,99.90
2023-03-30T06:52:13.218Z,99.90
2023-03-30T06:54:40.742Z,99.90
2023-03-30T06:57:08.341Z,99.90
2023-03-30T06:59:35.860Z,99.90
2023-03-30T07:02:03.401Z,99.90
2023-03-30T07:04:31.357Z,99.90
2023-03-30T07:06:58.837Z,99.90
2023-03-30T07:09:26.392Z,99.90
2023-03-30T07:11:56.273Z,99.90
2023-03-30T07:14:22.227Z,99.90
2023-03-30T07:16:49.821Z,99.90
2023-03-30T07:19:17.349Z,99.90
2023-03-30T07:21:44.893Z,99.90
2023-03-30T07:24:12.427Z,99.90
2023-03-30T07:26:40.007Z,99.90
2023-03-30T07:29:07.557Z,99.90
2023-03-30T07:31:35.134Z,99.90
2023-03-30T07:34:02.661Z,99.90
2023-03-30T07:36:30.180Z,99.90
2023-03-30T07:38:57.720Z,99.90
2023-03-30T07:41:25.300Z,99.90
2023-03-30T07:43:52.809Z,99.90
2023-03-30T07:46:20.385Z,99.90
2023-03-30T07:48:47.927Z,99.90
2023-03-30T07:51:15.464Z,99.90
2023-03-30T07:53:43.029Z,99.90
2023-03-30T07:56:10.626Z,99.90
2023-03-30T07:58:38.143Z,99.90
2023-03-30T08:01:06.016Z,99.90
2023-03-30T08:03:33.447Z,99.90
2023-03-30T08:06:00.804Z,99.90
2023-03-30T08:08:28.323Z,99.90
2023-03-30T08:10:55.911Z,99.90
2023-03-30T08:13:23.450Z,99.90
2023-03-30T08:15:51.023Z,99.90
2023-03-30T08:18:18.579Z,99.90
2023-03-30T08:20:46.118Z,99.90
2023-03-30T08:23:13.656Z,99.90
2023-03-30T08:25:41.251Z,99.90
2023-03-30T08:28:08.796Z,99.90
2023-03-30T08:30:36.330Z,99.90
2023-03-30T08:33:04.658Z,99.90
2023-03-30T08:35:32.196Z,99.90
2023-03-30T08:37:59.694Z,99.90
2023-03-30T08:40:27.277Z,99.90
2023-03-30T08:42:57.706Z,99.90
2023-03-30T08:45:25.330Z,99.90
2023-03-30T08:47:52.889Z,99.90
2023-03-30T08:50:26.097Z,99.90
2023-03-30T08:52:53.635Z,99.90
2023-03-30T08:55:26.645Z,99.90
2023-03-30T08:58:02.886Z,99.90
2023-03-30T09:00:30.450Z,99.90
2023-03-30T09:03:00.799Z,99.90
2023-03-30T09:05:31.008Z,99.90
2023-03-30T09:08:16.370Z,99.90
2023-03-30T09:10:43.900Z,99.90
2023-03-30T09:13:11.420Z,99.90
2023-03-30T09:15:44.667Z,99.90
2023-03-30T09:18:29.795Z,99.90
2023-03-30T09:20:59.859Z,99.90
2023-03-30T09:23:27.408Z,99.90
2023-03-30T09:25:58.747Z,99.90
2023-03-30T09:28:40.224Z,99.90
2023-03-30T09:31:08.028Z,99.90
2023-03-30T09:33:47.926Z,99.90
2023-03-30T09:36:33.912Z,99.90
2023-03-30T09:39:01.439Z,99.90
2023-03-30T09:41:37.874Z,99.90
2023-03-30T09:44:06.167Z,99.90
2023-03-30T09:46:33.780Z,99.90
2023-03-30T09:49:13.079Z,99.90
2023-03-30T09:51:40.620Z,99.90
2023-03-30T09:54:08.161Z,99.90
2023-03-30T09:56:35.736Z,99.90
2023-03-30T09:59:30.238Z,99.90
2023-03-30T10:02:18.273Z,99.90
2023-03-30T10:04:54.765Z,99.90
2023-03-30T10:07:30.903Z,99.90
2023-03-30T10:09:58.422Z,99.90
2023-03-30T10:12:26.005Z,99.90
2023-03-30T10:14:56.257Z,99.90
2023-03-30T10:17:26.579Z,99.90
2023-03-30T10:20:03.622Z,99.90
2023-03-30T10:22:21.654Z,99.90
2023-03-30T10:24:49.189Z,99.90
2023-03-30T10:27:16.721Z,99.90
2023-03-30T10:29:47.723Z,99.90
2023-03-30T10:32:15.263Z,99.90
2023-03-30T10:34:45.190Z,99.90
2023-03-30T10:37:12.780Z,99.90
2023-03-30T10:39:40.299Z,99.90
2023-03-30T10:42:08.118Z,99.90
2023-03-30T10:44:35.903Z,99.70
2023-03-30T10:47:15.242Z,99.30
2023-03-30T10:49:48.733Z,99.70
2023-03-30T10:52:23.121Z,99.60
2023-03-30T10:54:53.441Z,99.50
2023-03-30T10:57:21.129Z,99.50
2023-03-30T11:00:03.445Z,99.40
2023-03-30T11:02:39.781Z,99.40
2023-03-30T11:05:15.992Z,98.80
2023-03-30T11:07:46.219Z,97.70
2023-03-30T11:10:34.815Z,97.40
2023-03-30T11:13:04.977Z,97.40
2023-03-30T11:15:38.207Z,97.30
2023-03-30T11:18:11.539Z,97.10
2023-03-30T11:20:41.530Z,97.50
2023-03-30T11:23:32.760Z,97.80
2023-03-30T11:26:02.997Z,98.10
2023-03-30T11:28:51.487Z,98.10
2023-03-30T11:31:39.760Z,98.10
2023-03-30T11:34:21.763Z,98.10
2023-03-30T11:37:10.494Z,97.80
2023-03-30T11:39:38.109Z,96.90
2023-03-30T11:42:14.409Z,96.20
2023-03-30T11:44:41.964Z,95.90
2023-03-30T11:47:36.511Z,95.60
2023-03-30T11:50:06.940Z,95.50
2023-03-30T11:52:58.208Z,94.60
2023-03-30T11:55:25.741Z,94.70
2023-03-30T11:58:03.618Z,94.70
2023-03-30T12:00:43.882Z,93.90
2023-03-30T12:03:29.150Z,93.30
2023-03-30T12:06:15.689Z,90.30
2023-03-30T12:08:46.142Z,90.60
2023-03-30T12:11:13.692Z,90.70
2023-03-30T12:13:50.777Z,90.00
2023-03-30T12:16:09.045Z,86.40
2023-03-30T12:18:39.151Z,85.00
2023-03-30T12:21:06.780Z,81.90
2023-03-30T12:23:40.002Z,81.00
2023-03-30T12:26:18.994Z,79.80
2023-03-30T12:29:11.299Z,80.60
2023-03-30T12:31:14.115Z,81.10
2023-03-30T12:33:47.340Z,81.60
2023-03-30T12:36:32.448Z,82.10
2023-03-30T12:39:02.688Z,82.50
2023-03-30T12:41:30.185Z,82.80
2023-03-30T12:44:06.495Z,83.80
2023-03-30T12:46:54.583Z,85.00
2023-03-30T12:49:30.865Z,86.00
2023-03-30T12:52:01.126Z,87.80
2023-03-30T12:54:49.849Z,89.30
2023-03-30T12:57:26.265Z,89.10
2023-03-30T12:59:53.750Z,87.40
2023-03-30T13:02:45.272Z,88.00
2023-03-30T13:05:21.202Z,86.60
2023-03-30T13:07:48.733Z,87.50
2023-03-30T13:10:31.172Z,90.90
2023-03-30T13:12:58.698Z,92.70
2023-03-30T13:15:53.481Z,94.20
2023-03-30T13:18:23.703Z,95.70
2023-03-30T13:20:51.234Z,96.80
2023-03-30T13:23:21.706Z,97.10
2023-03-30T13:26:00.620Z,97.40
2023-03-30T13:28:45.745Z,98.30
2023-03-30T13:31:21.963Z,98.30
2023-03-30T13:33:49.444Z,99.00
2023-03-30T13:36:19.622Z,99.50
2023-03-30T13:38:52.602Z,99.50
2023-03-30T13:41:22.859Z,99.60
2023-03-30T13:43:55.995Z,99.50
2023-03-30T13:46:50.149Z,99.50
2023-03-30T13:49:23.473Z,99.50
2023-03-30T13:51:51.021Z,99.60
2023-03-30T13:54:18.666Z,99.50
2023-03-30T13:56:48.966Z,99.90
2023-03-30T13:59:19.138Z,99.90
2023-03-30T14:01:46.992Z,99.90
2023-03-30T14:04:14.513Z,99.90
2023-03-30T14:06:42.027Z,99.90
2023-03-30T14:09:09.593Z,99.90
2023-03-30T14:11:45.851Z,99.90
2023-03-30T14:14:22.003Z,99.90
2023-03-30T14:16:49.548Z,99.90
2023-03-30T14:19:20.064Z,99.90
2023-03-30T14:21:47.620Z,99.70
2023-03-30T14:24:17.983Z,99.30
2023-03-30T14:26:48.006Z,99.00
2023-03-30T14:29:21.284Z,98.60
2023-03-30T14:31:45.764Z,98.60
2023-03-30T14:34:22.615Z,98.80
2023-03-30T14:36:50.151Z,98.60
2023-03-30T14:39:17.700Z,97.80
2023-03-30T14:41:45.293Z,98.00
2023-03-30T14:44:12.804Z,97.90
2023-03-30T14:46:43.154Z,97.60
2023-03-30T14:49:25.782Z,97.60
2023-03-30T14:51:54.381Z,97.30
2023-03-30T14:54:21.882Z,97.50
2023-03-30T14:56:52.058Z,97.30
2023-03-30T14:59:19.541Z,96.90
2023-03-30T15:01:47.112Z,96.40
2023-03-30T15:04:15.685Z,95.90
2023-03-30T15:06:43.158Z,95.50
2023-03-30T15:09:13.137Z,95.00
2023-03-30T15:11:40.713Z,94.50
2023-03-30T15:14:08.262Z,94.10
2023-03-30T15:16:35.919Z,93.90
2023-03-30T15:19:06.294Z,93.80
2023-03-30T15:21:33.831Z,93.50
2023-03-30T15:24:01.373Z,93.20
2023-03-30T15:26:29.199Z,93.40
2023-03-30T15:28:56.737Z,92.90
2023-03-30T15:31:24.378Z,92.80
2023-03-30T15:33:54.678Z,92.60
2023-03-30T15:36:24.879Z,91.90
2023-03-30T15:38:58.012Z,91.70
2023-03-30T15:41:25.555Z,91.50
2023-03-30T15:44:11.117Z,91.40
2023-03-30T15:46:38.797Z,91.70
2023-03-30T15:49:06.264Z,91.70
2023-03-30T15:51:36.465Z,91.70
2023-03-30T15:54:16.122Z,92.00
2023-03-30T15:56:46.121Z,92.10
2023-03-30T15:59:16.732Z,92.30
2023-03-30T16:01:44.327Z,92.80
2023-03-30T16:04:11.825Z,92.90
2023-03-30T16:06:40.988Z,93.40
2023-03-30T16:09:06.927Z,93.60
2023-03-30T16:11:34.457Z,93.40
2023-03-30T16:14:02.001Z,93.60
2023-03-30T16:16:29.643Z,93.40
2023-03-30T16:18:57.108Z,93.50
2023-03-30T16:21:24.640Z,93.80
2023-03-30T16:23:52.231Z,93.90
2023-03-30T16:26:19.762Z,93.60
2023-03-30T16:28:47.368Z,93.50
2023-03-30T16:31:15.000Z,93.70
2023-03-30T16:33:42.469Z,93.70
2023-03-30T16:36:10.076Z,94.10
2023-03-30T16:38:37.582Z,94.40
2023-03-30T16:41:05.236Z,94.70
2023-03-30T16:43:32.636Z,95.20
2023-03-30T16:46:00.285Z,95.60
2023-03-30T16:48:27.950Z,96.00
2023-03-30T16:50:55.347Z,96.40
2023-03-30T16:53:22.911Z,96.70
2023-03-30T16:55:50.446Z,96.80
2023-03-30T16:58:17.996Z,97.00
2023-03-30T17:00:45.705Z,97.30
2023-03-30T17:03:13.175Z,97.60
2023-03-30T17:05:40.754Z,98.00
2023-03-30T17:08:08.297Z,97.80
2023-03-30T17:10:35.833Z,98.20
2023-03-30T17:13:03.357Z,98.70
2023-03-30T17:15:31.010Z,99.20
2023-03-30T17:17:58.594Z,99.90
2023-03-30T17:20:49.641Z,99.90
2023-03-30T17:23:17.188Z,99.90
2023-03-30T17:25:46.331Z,99.90
2023-03-30T17:28:24.192Z,99.90
2023-03-30T17:30:51.703Z,99.90
2023-03-30T17:33:19.226Z,99.90
2023-03-30T17:35:49.900Z,99.90
2023-03-30T17:38:17.393Z,99.90
2023-03-30T17:40:44.937Z,99.90
2023-03-30T17:43:12.565Z,99.90
2023-03-30T17:45:40.031Z,99.90
2023-03-30T17:48:07.639Z,99.90
2023-03-30T17:50:35.138Z,99.90
2023-03-30T17:53:02.691Z,99.90
2023-03-30T17:55:30.232Z,99.90
2023-03-30T17:57:57.804Z,99.90
2023-03-30T18:00:25.337Z,99.90
2023-03-30T18:02:52.908Z,99.90
2023-03-30T18:05:20.442Z,99.90
2023-03-30T18:07:47.978Z,99.90
2023-03-30T18:10:33.137Z,99.90
2023-03-30T18:13:00.665Z,99.90
2023-03-30T18:15:28.229Z,99.90
2023-03-30T18:17:55.855Z,99.90
2023-03-30T18:20:41.264Z,99.90
2023-03-30T18:23:08.849Z,99.90
2023-03-30T18:25:36.381Z,99.90
2023-03-30T18:28:03.957Z,99.90
2023-03-30T18:30:31.595Z,99.90
2023-03-30T18:32:59.197Z,99.90
2023-03-30T18:35:26.709Z,99.90
2023-03-30T18:37:54.552Z,99.90
2023-03-30T18:40:25.032Z,99.90
2023-03-30T18:42:52.595Z,99.90
2023-03-30T18:45:28.964Z,99.90
2023-03-30T18:47:56.551Z,99.90
2023-03-30T18:50:32.690Z,99.90
2023-03-30T18:53:00.551Z,99.90
2023-03-30T18:55:28.081Z,99.90
2023-03-30T18:57:55.632Z,99.90
2023-03-30T19:00:23.244Z,99.90
2023-03-30T19:02:50.894Z,99.90
2023-03-30T19:05:18.316Z,99.90
2023-03-30T19:07:45.897Z,99.90
2023-03-30T19:10:13.427Z,99.90
2023-03-30T19:12:40.967Z,99.90
2023-03-30T19:15:08.556Z,99.90
2023-03-30T19:17:37.168Z,99.90
2023-03-30T19:20:04.700Z,99.90
2023-03-30T19:22:32.292Z,99.90
2023-03-30T19:24:59.822Z,99.90
2023-03-30T19:27:27.356Z,99.90
2023-03-30T19:29:54.998Z,99.90
2023-03-30T19:32:22.553Z,99.90
2023-03-30T19:34:50.095Z,99.90
2023-03-30T19:37:17.680Z,99.90
2023-03-30T19:39:45.200Z,99.90
2023-03-30T19:42:12.721Z,99.90
2023-03-30T19:44:40.291Z,99.90
2023-03-30T19:47:07.838Z,99.90
2023-03-30T19:49:35.375Z,99.90
2023-03-30T19:52:02.932Z,99.90
2023-03-30T19:54:30.470Z,99.90
2023-03-30T19:56:58.036Z,99.90
2023-03-30T19:59:25.849Z,99.90
2023-03-30T20:01:53.455Z,99.90
2023-03-30T20:04:20.911Z,99.90
2023-03-30T20:06:48.523Z,99.90
2023-03-30T20:09:16.062Z,99.90
2023-03-30T20:11:43.581Z,99.90
2023-03-30T20:14:11.208Z,99.90
2023-03-30T20:16:38.786Z,99.90
2023-03-30T20:19:15.897Z,99.90
2023-03-30T20:21:33.906Z,99.90
2023-03-30T20:24:01.429Z,99.90
2023-03-30T20:26:28.961Z,99.90
2023-03-30T20:28:56.557Z,99.90
2023-03-30T20:31:24.071Z,99.90
2023-03-30T20:33:51.607Z,99.90
2023-03-30T20:36:19.178Z,99.90
2023-03-30T20:38:46.717Z,99.90
2023-03-30T20:41:14.255Z,99.90
2023-03-30T20:43:53.224Z,99.90
2023-03-30T20:46:09.690Z,99.90
2023-03-30T20:48:39.511Z,99.90
2023-03-30T20:51:07.387Z,99.90
2023-03-30T20:53:34.682Z,99.90
2023-03-30T20:56:02.259Z,99.90
2023-03-30T20:58:29.844Z,99.90
2023-03-30T21:00:59.875Z,99.90
2023-03-30T21:03:27.368Z,99.90
2023-03-30T21:06:04.068Z,99.90
2023-03-30T21:08:31.293Z,99.90
2023-03-30T21:10:58.810Z,99.90
2023-03-30T21:13:26.465Z,99.90
2023-03-30T21:15:56.675Z,99.90
2023-03-30T21:18:24.202Z,99.90
2023-03-30T21:20:51.776Z,99.90
2023-03-30T21:23:19.298Z,99.90
2023-03-30T21:25:46.840Z,99.90
2023-03-30T21:28:14.933Z,99.90
2023-03-30T21:30:42.495Z,99.90
2023-03-30T21:33:10.016Z,99.90
2023-03-30T21:35:37.624Z,99.90
2023-03-30T21:38:05.094Z,99.90
2023-03-30T21:40:32.618Z,99.90
2023-03-30T21:43:00.213Z,99.90
2023-03-30T21:45:27.739Z,99.90
2023-03-30T21:47:55.283Z,99.90
2023-03-30T21:50:22.837Z,99.90
2023-03-30T21:52:50.362Z,99.90
2023-03-30T21:55:17.885Z,99.90
2023-03-30T21:57:45.438Z,99.90
2023-03-30T22:00:13.059Z,99.90
2023-03-30T22:02:40.683Z,99.90
2023-03-30T22:05:08.154Z,99.90
2023-03-30T22:07:35.712Z,99.90
2023-03-30T22:10:03.222Z,99.90
2023-03-30T22:12:30.788Z,99.90
2023-03-30T22:14:58.322Z,99.90
2023-03-30T22:17:25.876Z,99.90
2023-03-30T22:19:53.417Z,99.90
2023-03-30T22:22:20.948Z,99.90
2023-03-30T22:24:48.473Z,99.90
2023-03-30T22:27:16.031Z,99.90
2023-03-30T22:29:43.580Z,99.90
2023-03-30T22:32:11.160Z,99.90
2023-03-30T22:34:38.705Z,99.90
2023-03-30T22:37:06.269Z,99.90
2023-03-30T22:39:33.761Z,99.90
2023-03-30T22:42:02.097Z,99.90
2023-03-30T22:44:29.608Z,99.90
2023-03-30T22:46:57.143Z,99.90
2023-03-30T22:49:24.755Z,99.90
2023-03-30T22:51:53.245Z,99.90
2023-03-30T22:54:19.801Z,99.90
2023-03-30T22:56:47.404Z,99.90
2023-03-30T22:59:14.887Z,99.90
2023-03-30T23:01:42.475Z,99.90
2023-03-30T23:04:10.048Z,99.90
2023-03-30T23:06:37.574Z,99.90
2023-03-30T23:09:05.100Z,99.90
2023-03-30T23:11:32.673Z,99.90
2023-03-30T23:14:02.882Z,99.90
2023-03-30T23:16:30.454Z,99.90
2023-03-30T23:18:57.978Z,99.90
2023-03-30T23:21:25.506Z,99.90
2023-03-30T23:23:53.037Z,99.90
2023-03-30T23:26:20.591Z,99.90
2023-03-30T23:28:48.143Z,99.90
2023-03-30T23:31:15.734Z,99.90
2023-03-30T23:33:43.193Z,99.90
2023-03-30T23:36:11.058Z,99.90
2023-03-30T23:38:38.323Z,99.90
2023-03-30T23:41:05.844Z,99.90
2023-03-30T23:43:33.421Z,99.90
2023-03-30T23:46:00.976Z,99.90
2023-03-30T23:48:28.475Z,99.90
2023-03-30T23:50:56.043Z,99.90
2023-03-30T23:53:23.586Z,99.90
2023-03-30T23:55:51.106Z,99.90
2023-03-30T23:58:18.685Z,99.90
